Time;durP1;ratioP1;P1;durP2;ratioP2;P2;SDS_P1;SDS_P2;PMS_P1;PMS_P2;Temp;Humidity;BMP_temperature;BMP_pressure;BME280_temperature;BME280_humidity;BME280_pressure;Samples;Min_cycle;Max_cycle;Signal;HPM_P1;HPM_P2
2023/05/22 00:01:25;;;;;;;20.40;10.82;;;17.00;69.90;;;;;;5007204;28;20119;-76
2023/05/22 00:03:53;;;;;;;18.27;11.10;;;17.00;69.80;;;;;;5007163;28;20458;-76
2023/05/22 00:06:19;;;;;;;18.00;10.68;;;17.00;69.90;;;;;;5006948;28;20030;-76
2023/05/22 00:08:45;;;;;;;16.50;10.90;;;16.90;69.60;;;;;;5007820;28;20037;-76
2023/05/22 00:11:11;;;;;;;20.60;12.32;;;16.90;70.10;;;;;;5007547;28;20041;-76
2023/05/22 00:13:37;;;;;;;22.98;14.40;;;16.90;69.40;;;;;;5007887;28;20038;-75
2023/05/22 00:16:03;;;;;;;20.20;13.30;;;16.90;68.90;;;;;;5007878;28;20508;-78
2023/05/22 00:18:29;;;;;;;23.35;16.30;;;16.90;69.10;;;;;;5007538;28;20034;-75
2023/05/22 00:20:56;;;;;;;29.70;19.95;;;16.90;68.10;;;;;;5006938;28;20040;-76
2023/05/22 00:23:26;;;;;;;28.95;17.38;;;16.90;67.90;;;;;;5006459;28;20038;-77
2023/05/22 00:25:52;;;;;;;19.95;14.95;;;16.90;67.10;;;;;;5004872;28;20030;-74
2023/05/22 00:28:18;;;;;;;24.95;14.65;;;16.90;66.80;;;;;;5005792;28;20053;-73
2023/05/22 00:30:44;;;;;;;22.73;12.65;;;16.90;66.50;;;;;;5006366;28;20041;-75
2023/05/22 00:33:11;;;;;;;15.18;11.57;;;16.90;66.70;;;;;;5006847;28;20038;-75
2023/05/22 00:35:37;;;;;;;16.65;11.27;;;16.90;67.30;;;;;;5006299;28;20431;-74
2023/05/22 00:38:04;;;;;;;19.52;10.50;;;16.90;69.30;;;;;;5005102;28;20184;-75
2023/05/22 00:40:30;;;;;;;15.43;10.57;;;16.80;70.20;;;;;;4989312;28;20026;-74
2023/05/22 00:42:56;;;;;;;15.07;10.02;;;16.80;71.00;;;;;;5005488;28;20454;-73
2023/05/22 00:45:23;;;;;;;20.33;10.93;;;16.80;71.10;;;;;;5021396;28;20128;-73
2023/05/22 00:47:49;;;;;;;15.57;9.77;;;16.80;71.20;;;;;;5005863;28;20038;-73
2023/05/22 00:50:17;;;;;;;15.82;10.10;;;16.70;71.20;;;;;;5000977;28;20062;-73
2023/05/22 00:52:45;;;;;;;17.10;9.93;;;16.70;71.30;;;;;;4985165;28;20042;-73
2023/05/22 00:55:13;;;;;;;13.10;9.02;;;16.70;71.80;;;;;;4986426;28;20498;-73
2023/05/22 00:57:40;;;;;;;12.13;9.50;;;16.60;72.20;;;;;;4986167;28;20038;-73
2023/05/22 01:00:10;;;;;;;14.32;9.23;;;16.60;72.00;;;;;;4999646;28;20057;-74
2023/05/22 01:02:36;;;;;;;14.80;9.57;;;16.60;71.90;;;;;;5005708;28;20416;-74
2023/05/22 01:05:05;;;;;;;13.98;10.20;;;16.60;71.40;;;;;;5004217;28;20168;-73
2023/05/22 01:07:33;;;;;;;14.10;10.63;;;16.70;70.20;;;;;;5004485;28;20125;-74
2023/05/22 01:09:59;;;;;;;13.45;10.73;;;16.70;70.00;;;;;;5003805;28;20033;-73
2023/05/22 01:12:41;;;;;;;19.38;11.65;;;16.60;69.40;;;;;;5005891;28;20030;-74
2023/05/22 01:15:08;;;;;;;13.27;9.70;;;16.60;68.40;;;;;;5005785;28;20485;-74
2023/05/22 01:18:28;;;;;;;14.98;9.40;;;16.60;67.70;;;;;;5005133;28;20083;-74
2023/05/22 01:21:09;;;;;;;12.63;8.48;;;16.50;67.30;;;;;;4907035;29;20048;-74
2023/05/22 01:23:56;;;;;;;11.45;8.25;;;16.50;66.50;;;;;;4906947;29;20576;-74
2023/05/22 01:26:31;;;;;;;10.10;7.60;;;16.50;65.80;;;;;;4872013;29;20041;-74
2023/05/22 01:29:34;;;;;;;9.20;8.20;;;16.50;65.20;;;;;;4886642;29;20059;-74
2023/05/22 01:32:03;;;;;;;10.65;7.78;;;16.40;65.20;;;;;;4906742;29;20071;-74
2023/05/22 01:34:30;;;;;;;12.63;8.40;;;16.40;65.40;;;;;;4894564;29;20535;-74
2023/05/22 01:36:57;;;;;;;12.30;8.05;;;16.40;65.20;;;;;;4906119;29;20610;-74
2023/05/22 01:39:26;;;;;;;10.25;7.95;;;16.40;65.40;;;;;;4906365;29;20162;-73
2023/05/22 01:41:52;;;;;;;10.43;8.45;;;16.30;65.50;;;;;;4907178;29;20131;-73
2023/05/22 01:44:18;;;;;;;11.20;8.43;;;16.30;65.50;;;;;;4906650;29;20148;-72
2023/05/22 01:46:44;;;;;;;11.98;9.05;;;16.30;65.50;;;;;;4906930;29;20040;-73
2023/05/22 01:49:10;;;;;;;13.70;9.15;;;16.30;65.80;;;;;;4906675;29;20044;-73
2023/05/22 01:51:36;;;;;;;13.98;9.35;;;16.30;65.90;;;;;;4890980;29;20559;-73
2023/05/22 01:54:04;;;;;;;13.27;9.15;;;16.30;65.60;;;;;;4906754;29;20307;-74
2023/05/22 01:56:58;;;;;;;13.68;9.88;;;16.30;65.40;;;;;;4914726;28;20049;-73
2023/05/22 01:59:30;;;;;;;12.98;9.93;;;16.30;65.40;;;;;;4986940;28;20508;-74
2023/05/22 02:02:00;;;;;;;13.73;10.35;;;16.20;65.70;;;;;;5003787;28;20504;-73
2023/05/22 02:04:29;;;;;;;11.20;9.43;;;16.10;65.80;;;;;;4997443;28;20129;-73
2023/05/22 02:06:59;;;;;;;13.93;10.77;;;16.10;65.80;;;;;;5005144;28;20085;-74
2023/05/22 02:09:29;;;;;;;12.70;9.38;;;16.10;66.10;;;;;;5036434;28;20124;-73
2023/05/22 02:11:56;;;;;;;12.82;9.85;;;16.00;66.40;;;;;;5016290;28;20034;-73
2023/05/22 02:14:23;;;;;;;15.80;10.65;;;16.00;66.70;;;;;;5003048;28;20038;-72
2023/05/22 02:16:49;;;;;;;13.05;10.63;;;16.10;66.90;;;;;;4987881;28;20038;-74
2023/05/22 02:19:15;;;;;;;13.48;11.13;;;16.00;66.90;;;;;;5003693;28;20124;-73
2023/05/22 02:21:42;;;;;;;12.85;10.65;;;16.00;66.90;;;;;;5003483;28;20787;-74
2023/05/22 02:24:08;;;;;;;17.20;11.32;;;16.10;67.40;;;;;;5003171;28;20045;-74
2023/05/22 02:26:34;;;;;;;14.90;11.27;;;16.10;67.40;;;;;;4987858;28;20041;-74
2023/05/22 02:29:02;;;;;;;15.43;11.25;;;16.10;67.30;;;;;;5003266;28;20187;-74
2023/05/22 02:31:28;;;;;;;17.42;11.50;;;16.10;67.70;;;;;;4987337;28;20041;-75
2023/05/22 02:33:56;;;;;;;14.55;11.55;;;16.10;67.70;;;;;;4986786;28;20090;-74
2023/05/22 02:36:22;;;;;;;19.15;12.65;;;16.10;68.20;;;;;;5003143;28;20045;-74
2023/05/22 02:38:48;;;;;;;14.75;11.68;;;16.10;68.20;;;;;;5004393;28;20037;-75
2023/05/22 02:41:14;;;;;;;16.10;11.98;;;16.10;68.50;;;;;;5003521;28;20030;-75
2023/05/22 02:43:40;;;;;;;17.42;13.15;;;16.10;68.90;;;;;;5004472;28;21429;-74
2023/05/22 02:46:05;;;;;;;17.45;12.57;;;16.10;68.70;;;;;;5003029;28;20034;-74
2023/05/22 02:48:31;;;;;;;19.20;12.18;;;16.10;68.70;;;;;;5003628;28;20165;-75
2023/05/22 02:50:57;;;;;;;18.33;12.50;;;16.10;68.70;;;;;;5007156;28;20038;-74
2023/05/22 02:53:23;;;;;;;17.42;12.88;;;16.10;68.90;;;;;;5040263;28;20477;-75
2023/05/22 02:55:51;;;;;;;18.13;13.38;;;16.20;68.80;;;;;;5007581;28;20524;-75
2023/05/22 02:58:18;;;;;;;17.05;13.50;;;16.10;69.50;;;;;;5008757;28;20030;-76
2023/05/22 03:00:44;;;;;;;15.10;12.48;;;16.10;69.00;;;;;;5019601;28;20026;-75
2023/05/22 03:03:10;;;;;;;17.85;13.15;;;16.10;69.00;;;;;;5007465;28;20076;-74
2023/05/22 03:05:37;;;;;;;20.92;14.02;;;16.10;69.10;;;;;;4991408;28;20431;-74
2023/05/22 03:08:03;;;;;;;18.95;13.48;;;16.10;69.10;;;;;;5006723;28;20042;-73
2023/05/22 03:10:29;;;;;;;19.75;13.73;;;16.10;69.60;;;;;;5006708;28;20030;-74
2023/05/22 03:12:55;;;;;;;24.88;13.85;;;16.10;69.60;;;;;;5008602;28;20073;-74
2023/05/22 03:15:22;;;;;;;22.25;14.25;;;16.10;69.20;;;;;;5005528;28;20081;-74
2023/05/22 03:17:50;;;;;;;19.20;14.02;;;16.20;69.10;;;;;;5006338;28;20091;-73
2023/05/22 03:20:16;;;;;;;19.10;13.63;;;16.20;69.20;;;;;;5005036;28;20137;-74
2023/05/22 03:22:44;;;;;;;19.70;13.82;;;16.10;69.40;;;;;;5004698;28;20042;-73
2023/05/22 03:25:11;;;;;;;18.08;13.88;;;16.20;69.60;;;;;;5004130;28;20181;-74
2023/05/22 03:27:38;;;;;;;22.10;14.57;;;16.10;69.90;;;;;;5004690;28;20057;-75
2023/05/22 03:30:05;;;;;;;21.02;14.57;;;16.10;70.00;;;;;;5018706;28;20034;-74
2023/05/22 03:32:36;;;;;;;20.65;14.77;;;16.10;70.00;;;;;;5004982;28;20052;-72
2023/05/22 03:35:03;;;;;;;21.02;14.55;;;16.10;70.30;;;;;;5004592;28;20033;-74
2023/05/22 03:37:29;;;;;;;19.52;14.13;;;16.20;70.50;;;;;;5020452;28;20029;-73
2023/05/22 03:39:56;;;;;;;18.63;14.57;;;16.20;70.50;;;;;;5004055;28;20067;-74
2023/05/22 03:42:26;;;;;;;17.77;13.95;;;16.20;71.10;;;;;;4973455;28;20124;-74
2023/05/22 03:44:52;;;;;;;19.65;14.57;;;16.20;71.70;;;;;;5005516;28;20389;-73
2023/05/22 03:47:18;;;;;;;17.38;13.00;;;16.20;71.70;;;;;;5000625;28;20359;-73
2023/05/22 03:49:45;;;;;;;19.90;13.48;;;16.20;72.00;;;;;;4984296;28;20120;-76
2023/05/22 03:52:11;;;;;;;16.05;13.50;;;16.30;72.30;;;;;;5005383;28;20037;-77
2023/05/22 03:54:37;;;;;;;15.98;13.57;;;16.30;72.70;;;;;;5005351;28;20042;-72
2023/05/22 03:57:04;;;;;;;18.60;14.32;;;16.30;72.60;;;;;;5006447;28;20037;-75
2023/05/22 03:59:30;;;;;;;20.77;14.10;;;16.40;72.90;;;;;;5005835;28;20045;-75
2023/05/22 04:01:56;;;;;;;19.38;13.85;;;16.40;72.60;;;;;;5005222;28;20030;-75
2023/05/22 04:04:26;;;;;;;17.35;13.52;;;16.40;72.50;;;;;;5006279;28;20405;-74
2023/05/22 04:06:52;;;;;;;17.63;13.13;;;16.50;72.80;;;;;;5021877;28;20033;-77
2023/05/22 04:09:19;;;;;;;15.68;13.60;;;16.50;73.30;;;;;;5003924;28;20096;-76
2023/05/22 04:11:45;;;;;;;15.82;13.18;;;16.50;73.40;;;;;;5007863;28;20034;-75
2023/05/22 04:14:11;;;;;;;17.00;12.52;;;16.50;73.40;;;;;;5005668;28;20520;-75
2023/05/22 04:16:37;;;;;;;17.45;13.82;;;16.60;73.40;;;;;;5005541;28;20030;-75
2023/05/22 04:19:04;;;;;;;24.55;14.02;;;16.60;73.30;;;;;;5005367;28;20038;-75
2023/05/22 04:21:34;;;;;;;15.52;12.45;;;16.60;73.40;;;;;;5005363;28;20491;-76
2023/05/22 04:24:05;;;;;;;15.85;12.10;;;16.70;73.70;;;;;;5005119;28;20034;-75
2023/05/22 04:26:36;;;;;;;15.25;12.38;;;16.70;74.00;;;;;;5035659;28;20038;-74
2023/05/22 04:29:02;;;;;;;15.05;12.25;;;16.70;73.90;;;;;;5003832;28;20057;-73
2023/05/22 04:31:28;;;;;;;15.73;12.45;;;16.80;74.10;;;;;;5004396;28;20040;-74
2023/05/22 04:33:55;;;;;;;14.10;12.25;;;16.80;74.50;;;;;;5003714;28;20761;-75
2023/05/22 04:36:21;;;;;;;15.10;12.38;;;16.80;74.80;;;;;;5002002;28;20034;-75
2023/05/22 04:38:49;;;;;;;16.75;11.98;;;16.80;74.70;;;;;;5003057;28;20091;-76
2023/05/22 04:41:16;;;;;;;15.45;11.85;;;16.80;74.90;;;;;;5002006;28;20428;-76
2023/05/22 04:43:47;;;;;;;16.58;12.02;;;16.80;75.50;;;;;;5034169;28;20149;-72
2023/05/22 04:46:14;;;;;;;12.70;10.77;;;16.80;75.40;;;;;;5004506;28;20487;-74
2023/05/22 04:48:40;;;;;;;16.30;11.02;;;16.80;75.50;;;;;;5005732;28;20037;-74
2023/05/22 04:51:08;;;;;;;13.95;12.00;;;16.80;75.80;;;;;;5005674;28;20041;-75
2023/05/22 04:53:35;;;;;;;14.68;10.70;;;16.80;76.90;;;;;;4989613;28;20400;-73
2023/05/22 04:56:02;;;;;;;12.60;11.05;;;16.80;77.00;;;;;;4987842;28;20034;-74
2023/05/22 04:58:28;;;;;;;18.98;11.73;;;16.80;77.00;;;;;;5005142;28;20093;-74
2023/05/22 05:00:57;;;;;;;17.02;11.98;;;16.80;77.90;;;;;;5004736;28;20404;-73
2023/05/22 05:03:25;;;;;;;15.43;11.70;;;16.70;78.00;;;;;;5005018;28;20535;-75
2023/05/22 05:05:51;;;;;;;16.92;11.82;;;16.70;78.30;;;;;;4971933;28;20089;-73
2023/05/22 05:08:17;;;;;;;14.73;12.52;;;16.70;78.40;;;;;;5003891;28;20734;-74
2023/05/22 05:10:43;;;;;;;21.30;11.73;;;16.70;78.40;;;;;;4996940;28;20547;-74
2023/05/22 05:13:09;;;;;;;14.68;11.57;;;16.70;78.90;;;;;;4983546;28;20035;-75
2023/05/22 05:15:38;;;;;;;12.55;11.02;;;16.70;79.00;;;;;;4983393;28;20035;-74
2023/05/22 05:18:04;;;;;;;12.60;10.93;;;16.80;79.40;;;;;;4984943;28;20030;-73
2023/05/22 05:20:30;;;;;;;13.55;10.48;;;16.80;79.80;;;;;;4984496;28;20473;-74
2023/05/22 05:22:56;;;;;;;12.77;10.40;;;16.70;80.30;;;;;;4968115;28;20054;-74
2023/05/22 05:25:22;;;;;;;15.30;10.70;;;16.80;80.70;;;;;;4994813;28;20054;-75
2023/05/22 05:27:48;;;;;;;13.10;10.25;;;16.70;80.80;;;;;;5000452;28;20120;-75
2023/05/22 05:30:15;;;;;;;13.70;11.10;;;16.70;81.20;;;;;;5004225;28;20048;-74
2023/05/22 05:32:58;;;;;;;15.13;11.23;;;16.80;81.40;;;;;;5016843;28;20061;-75
2023/05/22 05:36:00;;;;;;;12.90;10.77;;;16.80;81.60;;;;;;5004622;28;20084;-74
2023/05/22 05:38:27;;;;;;;12.77;10.23;;;16.80;82.00;;;;;;5005108;28;20045;-76
2023/05/22 05:40:54;;;;;;;11.43;10.25;;;16.80;82.00;;;;;;5004782;28;20045;-76
2023/05/22 05:43:22;;;;;;;12.23;9.95;;;16.80;82.20;;;;;;5004185;28;20034;-74
2023/05/22 05:45:52;;;;;;;10.75;9.65;;;16.80;81.80;;;;;;4999873;28;20516;-75
2023/05/22 05:48:18;;;;;;;11.65;9.15;;;16.80;81.90;;;;;;5004207;28;20040;-75
2023/05/22 05:50:46;;;;;;;9.73;8.68;;;16.80;82.60;;;;;;5003894;28;20069;-75
2023/05/22 05:53:12;;;;;;;9.82;8.90;;;16.90;82.80;;;;;;5004023;28;20037;-74
2023/05/22 05:55:42;;;;;;;12.82;9.38;;;16.90;82.70;;;;;;5003263;28;20034;-75
2023/05/22 05:58:08;;;;;;;10.02;8.82;;;16.90;82.90;;;;;;5036403;28;20089;-76
2023/05/22 06:00:43;;;;;;;12.07;9.38;;;16.90;83.50;;;;;;5003458;28;20049;-75
2023/05/22 06:03:09;;;;;;;12.80;9.32;;;16.90;83.70;;;;;;5004976;28;20041;-75
2023/05/22 06:05:56;;;;;;;9.77;8.60;;;16.90;83.90;;;;;;5003829;28;20073;-75
2023/05/22 06:08:45;;;;;;;9.43;8.48;;;16.90;84.40;;;;;;5004742;28;20129;-75
2023/05/22 06:11:13;;;;;;;9.55;8.65;;;16.90;84.40;;;;;;5003505;28;20041;-76
2023/05/22 06:13:50;;;;;;;9.57;8.60;;;17.00;84.30;;;;;;5003675;28;20033;-76
2023/05/22 06:16:16;;;;;;;10.65;9.60;;;16.90;84.40;;;;;;4986622;28;20040;-76
2023/05/22 06:18:42;;;;;;;11.75;9.48;;;16.90;84.30;;;;;;5004941;28;20036;-75
2023/05/22 06:21:08;;;;;;;10.88;9.73;;;17.00;84.60;;;;;;5036204;28;20033;-75
2023/05/22 06:23:34;;;;;;;10.73;9.40;;;17.00;84.50;;;;;;4987567;28;20034;-76
2023/05/22 06:26:01;;;;;;;10.88;9.13;;;17.00;84.40;;;;;;4971683;28;20098;-76
2023/05/22 06:28:27;;;;;;;12.93;10.27;;;17.00;84.70;;;;;;5002655;28;20081;-76
2023/05/22 06:30:55;;;;;;;10.88;9.60;;;17.00;85.00;;;;;;5019518;28;20816;-76
2023/05/22 06:33:22;;;;;;;10.07;9.00;;;17.00;84.80;;;;;;5003108;28;20030;-75
2023/05/22 06:35:49;;;;;;;9.90;8.43;;;17.10;85.10;;;;;;5003816;28;20029;-75
2023/05/22 06:38:16;;;;;;;9.30;7.90;;;17.10;84.60;;;;;;5002934;28;20108;-75
2023/05/22 06:40:42;;;;;;;9.70;8.73;;;17.10;84.80;;;;;;5036058;28;20030;-75
2023/05/22 06:43:13;;;;;;;9.02;8.13;;;17.10;84.80;;;;;;5003213;28;20072;-75
2023/05/22 06:46:04;;;;;;;11.15;8.88;;;17.10;84.60;;;;;;5002505;28;20037;-75
2023/05/22 06:48:36;;;;;;;9.98;8.48;;;17.10;85.30;;;;;;5004069;28;20125;-75
2023/05/22 06:51:13;;;;;;;10.98;8.45;;;17.10;85.30;;;;;;5036236;28;20121;-75
2023/05/22 06:53:40;;;;;;;9.40;8.40;;;17.10;85.50;;;;;;5017783;28;20029;-75
2023/05/22 06:56:12;;;;;;;9.93;8.93;;;17.10;85.10;;;;;;5003712;28;20127;-76
2023/05/22 06:58:53;;;;;;;11.38;8.60;;;17.20;85.00;;;;;;5002886;28;20038;-75
2023/05/22 07:01:22;;;;;;;9.65;8.68;;;17.20;85.00;;;;;;5003058;28;20030;-75
2023/05/22 07:04:00;;;;;;;9.88;8.40;;;17.20;85.30;;;;;;5003060;28;20030;-75
2023/05/22 07:06:40;;;;;;;10.32;8.43;;;17.20;85.60;;;;;;5002724;28;20033;-76
2023/05/22 07:09:09;;;;;;;9.48;8.57;;;17.20;86.00;;;;;;4986873;28;20559;-76
2023/05/22 07:11:37;;;;;;;8.95;8.05;;;17.20;85.90;;;;;;5002576;28;20038;-76
2023/05/22 07:14:03;;;;;;;9.15;7.85;;;17.30;85.80;;;;;;5003926;28;20306;-79
2023/05/22 07:16:32;;;;;;;8.68;7.78;;;17.30;85.60;;;;;;5003320;28;20030;-77
2023/05/22 07:18:58;;;;;;;8.30;7.35;;;17.40;85.70;;;;;;5003067;28;20108;-79
2023/05/22 07:21:25;;;;;;;8.15;7.35;;;17.50;85.70;;;;;;5003480;28;20034;-79
2023/05/22 07:23:52;;;;;;;8.70;7.60;;;17.50;85.70;;;;;;5004855;28;20090;-77
2023/05/22 07:26:18;;;;;;;8.55;7.65;;;17.60;85.60;;;;;;5037212;28;20177;-80
2023/05/22 07:28:51;;;;;;;7.63;6.90;;;17.70;85.60;;;;;;5000582;28;20065;-76
2023/05/22 07:31:17;;;;;;;7.93;7.03;;;17.70;85.40;;;;;;4993064;28;20693;-79
2023/05/22 07:33:45;;;;;;;7.80;6.72;;;17.80;85.80;;;;;;4986904;28;20034;-77
2023/05/22 07:36:11;;;;;;;10.05;7.40;;;17.80;85.50;;;;;;5004963;28;20037;-78
2023/05/22 07:38:40;;;;;;;7.88;6.93;;;17.90;85.30;;;;;;5007958;28;20132;-79
2023/05/22 07:41:06;;;;;;;9.88;7.60;;;17.90;84.70;;;;;;5008345;28;20042;-78
2023/05/22 07:43:33;;;;;;;7.68;6.93;;;18.00;85.00;;;;;;5006518;28;20037;-80
2023/05/22 07:45:59;;;;;;;7.20;6.45;;;18.00;84.80;;;;;;4986745;28;20034;-77
2023/05/22 07:48:31;;;;;;;7.68;6.88;;;18.00;84.80;;;;;;5023343;28;20578;-78
2023/05/22 07:50:57;;;;;;;8.48;7.30;;;18.10;84.80;;;;;;5006168;28;20519;-77
2023/05/22 07:53:24;;;;;;;12.93;8.13;;;18.20;84.70;;;;;;5006292;28;20099;-78
2023/05/22 07:55:53;;;;;;;8.13;7.32;;;18.20;84.60;;;;;;5006102;28;20092;-78
2023/05/22 07:58:19;;;;;;;8.27;7.47;;;18.30;84.50;;;;;;5005807;28;20034;-78
2023/05/22 08:00:46;;;;;;;8.70;7.88;;;18.40;84.00;;;;;;5006183;28;20113;-77
2023/05/22 08:03:13;;;;;;;9.32;8.18;;;18.40;84.10;;;;;;5007526;28;20120;-77
2023/05/22 08:05:39;;;;;;;9.13;8.00;;;18.40;84.20;;;;;;5006612;28;20037;-78
2023/05/22 08:08:04;;;;;;;8.63;7.63;;;18.50;83.70;;;;;;5006695;28;20041;-79
2023/05/22 08:10:30;;;;;;;8.88;7.60;;;18.50;83.70;;;;;;5007658;28;20086;-80
2023/05/22 08:13:01;;;;;;;9.07;7.20;;;18.60;84.20;;;;;;5006803;28;20638;-79
2023/05/22 08:15:27;;;;;;;8.32;7.43;;;18.70;83.90;;;;;;5006934;28;20034;-78
2023/05/22 08:17:53;;;;;;;9.77;8.13;;;18.70;84.00;;;;;;5007480;28;20049;-78
2023/05/22 08:20:19;;;;;;;8.25;7.28;;;18.70;84.00;;;;;;5005342;28;20046;-78
2023/05/22 08:22:45;;;;;;;8.52;7.68;;;18.70;84.20;;;;;;5006992;28;20574;-78
2023/05/22 08:25:11;;;;;;;8.57;7.68;;;18.70;83.70;;;;;;5005587;28;20045;-79
2023/05/22 08:27:37;;;;;;;9.10;7.45;;;18.80;83.70;;;;;;5006525;28;20049;-78
2023/05/22 08:30:03;;;;;;;7.85;6.97;;;18.90;83.90;;;;;;5007326;28;20029;-78
2023/05/22 08:32:30;;;;;;;6.90;6.20;;;18.90;83.40;;;;;;5007390;28;20509;-79
2023/05/22 08:34:56;;;;;;;6.55;5.90;;;18.90;83.60;;;;;;5006817;28;20049;-79
2023/05/22 08:37:22;;;;;;;6.65;5.63;;;18.90;83.40;;;;;;5006702;28;20034;-78
2023/05/22 08:39:48;;;;;;;6.50;5.07;;;19.00;83.50;;;;;;5006263;28;20041;-77
2023/05/22 08:54:17;;;;;;;5.78;5.18;;;19.10;82.40;;;;;;5108572;27;20537;-75
2023/05/22 08:56:44;;;;;;;5.97;5.38;;;19.40;82.90;;;;;;5109999;28;20038;-78
2023/05/22 08:59:10;;;;;;;6.95;5.60;;;19.40;82.40;;;;;;5110221;27;20039;-76
2023/05/22 09:01:36;;;;;;;6.57;5.20;;;19.40;82.20;;;;;;5107363;28;20129;-77
2023/05/22 09:04:02;;;;;;;6.97;5.32;;;19.50;82.00;;;;;;5110150;27;20069;-78
2023/05/22 09:06:29;;;;;;;6.75;5.80;;;19.50;81.80;;;;;;5108252;28;20502;-76
2023/05/22 09:08:58;;;;;;;7.40;5.63;;;19.50;82.20;;;;;;5109256;28;20055;-77
2023/05/22 09:11:25;;;;;;;6.20;5.60;;;19.60;82.00;;;;;;5110232;28;20349;-78
2023/05/22 09:13:51;;;;;;;6.50;5.70;;;19.60;81.00;;;;;;5110120;28;20035;-78
2023/05/22 09:16:18;;;;;;;8.60;7.63;;;19.70;81.10;;;;;;5113192;28;20470;-77
2023/05/22 09:18:45;;;;;;;7.53;5.40;;;19.70;82.00;;;;;;5112527;28;20028;-78
2023/05/22 09:21:13;;;;;;;6.97;6.32;;;19.70;80.10;;;;;;5111992;27;20453;-78
2023/05/22 09:23:40;;;;;;;6.78;5.60;;;19.80;80.70;;;;;;5111190;28;20043;-78
2023/05/22 09:26:06;;;;;;;6.57;5.97;;;19.80;80.70;;;;;;5112292;28;20043;-77
2023/05/22 09:28:36;;;;;;;7.65;6.05;;;19.80;80.50;;;;;;5111353;27;20036;-78
2023/05/22 09:31:03;;;;;;;6.70;5.53;;;19.90;80.60;;;;;;5112927;28;20559;-77
2023/05/22 09:33:30;;;;;;;6.22;5.57;;;19.90;80.20;;;;;;5111341;28;20047;-79
2023/05/22 09:35:57;;;;;;;6.85;5.50;;;20.00;80.00;;;;;;5112878;28;20584;-79
2023/05/22 09:38:30;;;;;;;5.78;5.22;;;20.00;79.80;;;;;;5112035;28;20027;-78
2023/05/22 09:40:56;;;;;;;5.20;4.80;;;20.10;79.20;;;;;;5110011;28;20023;-78
2023/05/22 09:43:26;;;;;;;5.32;4.68;;;20.10;78.90;;;;;;5112130;27;20040;-76
2023/05/22 09:46:00;;;;;;;6.43;4.50;;;20.10;78.90;;;;;;5111898;28;20054;-77
2023/05/22 09:48:26;;;;;;;4.40;3.63;;;20.10;77.90;;;;;;5109924;28;20459;-77
2023/05/22 09:50:53;;;;;;;4.55;4.05;;;20.20;77.70;;;;;;5111571;28;20063;-79
2023/05/22 09:53:28;;;;;;;4.40;4.10;;;20.10;78.30;;;;;;5106027;28;20052;-77
2023/05/22 09:55:57;;;;;;;4.10;3.70;;;20.10;78.00;;;;;;5098877;28;20463;-78
2023/05/22 09:58:26;;;;;;;4.85;3.97;;;20.10;77.60;;;;;;5096313;28;20035;-79
2023/05/22 10:00:54;;;;;;;4.63;4.25;;;20.10;77.50;;;;;;5097973;28;20036;-79
2023/05/22 10:03:23;;;;;;;5.35;3.83;;;20.20;77.20;;;;;;5096826;28;20151;-79
2023/05/22 10:05:54;;;;;;;4.13;3.72;;;20.20;77.40;;;;;;5097978;28;20065;-79
2023/05/22 10:08:27;;;;;;;5.10;4.60;;;20.20;77.40;;;;;;5097272;28;20133;-80
2023/05/22 10:10:53;;;;;;;7.45;4.57;;;20.20;77.60;;;;;;5098688;28;20119;-79
2023/05/22 10:13:20;;;;;;;8.00;4.57;;;20.10;77.80;;;;;;5097082;28;20470;-80
2023/05/22 10:15:48;;;;;;;7.70;5.20;;;20.10;78.00;;;;;;5097274;28;20032;-79
2023/05/22 10:18:16;;;;;;;4.28;3.92;;;20.20;77.60;;;;;;5097277;28;20055;-79
2023/05/22 10:20:43;;;;;;;5.97;4.30;;;20.30;77.20;;;;;;5096697;28;20031;-78
2023/05/22 10:23:09;;;;;;;4.70;4.30;;;20.30;77.40;;;;;;5098108;27;20035;-80
2023/05/22 10:25:39;;;;;;;4.80;4.30;;;20.40;77.20;;;;;;5095877;28;20038;-80
2023/05/22 10:28:06;;;;;;;4.55;4.15;;;20.40;76.90;;;;;;5098000;28;20058;-80
2023/05/22 10:30:38;;;;;;;6.25;4.60;;;20.50;77.00;;;;;;5097538;28;20032;-80
2023/05/22 10:33:35;;;;;;;6.20;4.50;;;20.50;77.50;;;;;;5097565;28;20080;-80
2023/05/22 10:36:08;;;;;;;5.32;4.82;;;20.50;77.40;;;;;;5097121;28;20676;-76
2023/05/22 10:39:03;;;;;;;5.38;4.88;;;20.50;77.40;;;;;;5098092;28;20100;-80
2023/05/22 10:41:30;;;;;;;5.82;5.05;;;20.50;77.70;;;;;;5095528;28;20125;-79
2023/05/22 10:43:56;;;;;;;5.80;5.20;;;20.60;77.30;;;;;;5098499;28;20486;-80
2023/05/22 10:46:22;;;;;;;6.32;5.15;;;20.60;77.00;;;;;;5097778;28;20027;-80
2023/05/22 10:48:52;;;;;;;6.05;4.70;;;20.60;77.00;;;;;;5095042;28;20502;-79
2023/05/22 10:51:21;;;;;;;5.88;4.72;;;20.70;76.60;;;;;;5096625;28;20032;-80
2023/05/22 10:53:59;;;;;;;5.15;4.18;;;20.70;76.60;;;;;;5068057;28;20069;-79
2023/05/22 10:56:33;;;;;;;5.78;4.47;;;20.80;76.00;;;;;;4983417;28;20501;-78
2023/05/22 10:59:04;;;;;;;5.53;5.10;;;20.80;75.90;;;;;;5060483;28;20040;-80
2023/05/22 11:01:33;;;;;;;6.00;5.22;;;20.80;76.30;;;;;;5061337;28;20093;-80
2023/05/22 11:04:06;;;;;;;5.18;4.68;;;20.90;76.50;;;;;;5066769;28;20061;-76
2023/05/22 11:06:41;;;;;;;5.38;4.80;;;20.80;75.90;;;;;;5059635;28;20060;-76
2023/05/22 11:09:27;;;;;;;;;;;20.90;75.80;;;;;;5061813;28;20497;-77
2023/05/22 11:12:26;;;;;;;5.82;5.30;;;20.90;75.50;;;;;;5035779;28;20505;-77
2023/05/22 11:15:08;;;;;;;6.85;5.30;;;21.00;75.50;;;;;;4996057;28;20039;-78
2023/05/22 11:17:50;;;;;;;6.28;5.68;;;21.00;75.00;;;;;;5097090;28;20050;-77
2023/05/22 11:20:23;;;;;;;6.72;4.97;;;21.00;75.90;;;;;;5095234;28;20506;-77
2023/05/22 11:22:59;;;;;;;6.10;5.50;;;21.10;74.90;;;;;;5092398;28;20043;-78
2023/05/22 11:25:26;;;;;;;;;;;21.10;75.50;;;;;;5097768;28;21806;-76
2023/05/22 11:27:54;;;;;;;6.43;4.95;;;21.10;75.10;;;;;;5095620;28;20473;-77
2023/05/22 11:30:24;;;;;;;6.13;5.55;;;21.10;74.10;;;;;;5095608;28;20096;-77
2023/05/22 11:32:50;;;;;;;9.38;5.68;;;21.20;74.70;;;;;;5094755;28;20032;-76
2023/05/22 11:35:17;;;;;;;5.88;5.38;;;21.20;74.60;;;;;;5095599;28;20032;-75
2023/05/22 11:37:44;;;;;;;8.27;5.18;;;21.20;74.80;;;;;;5095962;28;20095;-75
2023/05/22 11:40:14;;;;;;;5.95;5.35;;;21.20;74.40;;;;;;5094274;28;20044;-74
2023/05/22 11:42:40;;;;;;;6.45;5.05;;;21.30;74.60;;;;;;5092608;28;20039;-76
2023/05/22 11:45:06;;;;;;;5.55;5.13;;;21.30;74.30;;;;;;5096403;28;20719;-74
2023/05/22 11:47:33;;;;;;;6.03;5.47;;;21.30;74.20;;;;;;5095349;28;20051;-75
2023/05/22 11:50:00;;;;;;;7.35;5.55;;;21.30;73.70;;;;;;5095554;28;20404;-74
2023/05/22 11:52:34;;;;;;;6.53;5.50;;;21.30;73.80;;;;;;5096184;28;20483;-74
2023/05/22 11:55:01;;;;;;;10.52;6.38;;;21.30;73.90;;;;;;5095247;28;20059;-75
2023/05/22 11:57:27;;;;;;;7.25;6.30;;;21.40;75.10;;;;;;5095128;28;20818;-73
2023/05/22 11:59:53;;;;;;;7.13;6.07;;;21.50;75.20;;;;;;5092608;28;20490;-74
2023/05/22 12:02:19;;;;;;;7.20;6.50;;;21.40;75.00;;;;;;5093140;28;20047;-74
2023/05/22 12:04:45;;;;;;;8.77;6.13;;;21.50;75.50;;;;;;5096950;28;20110;-76
2023/05/22 12:07:12;;;;;;;8.75;6.38;;;21.60;75.30;;;;;;5095427;28;20038;-75
2023/05/22 12:09:41;;;;;;;8.70;6.85;;;21.60;75.30;;;;;;5096361;28;20421;-75
2023/05/22 12:12:10;;;;;;;8.32;6.22;;;21.70;75.80;;;;;;5080473;28;20074;-76
2023/05/22 12:14:37;;;;;;;7.40;6.70;;;21.70;75.80;;;;;;5093662;28;20368;-76
2023/05/22 12:17:03;;;;;;;10.00;6.50;;;21.70;75.80;;;;;;5096352;28;20498;-76
2023/05/22 12:19:29;;;;;;;9.40;6.35;;;21.80;76.00;;;;;;5095815;28;20459;-79
2023/05/22 12:21:56;;;;;;;8.25;6.60;;;21.80;75.50;;;;;;5095105;28;20076;-77
2023/05/22 12:24:25;;;;;;;9.93;6.72;;;21.80;75.60;;;;;;5094066;28;20035;-77
2023/05/22 12:26:52;;;;;;;7.25;5.95;;;21.80;75.50;;;;;;5095309;28;20032;-77
2023/05/22 12:29:20;;;;;;;7.28;6.10;;;21.90;75.10;;;;;;5095756;28;20023;-78
2023/05/22 12:31:47;;;;;;;9.55;6.05;;;21.90;74.60;;;;;;5095097;28;20028;-77
2023/05/22 12:34:15;;;;;;;10.85;5.97;;;21.90;74.20;;;;;;5094787;28;20450;-77
2023/05/22 12:36:44;;;;;;;8.88;6.20;;;21.90;73.90;;;;;;5094218;28;20039;-77
2023/05/22 12:39:20;;;;;;;6.22;5.60;;;22.00;73.70;;;;;;5094745;28;20718;-77
2023/05/22 12:41:46;;;;;;;7.85;6.25;;;22.00;73.30;;;;;;5076054;28;20406;-77
2023/05/22 12:44:13;;;;;;;8.15;6.07;;;22.00;73.20;;;;;;5095879;28;20028;-78
2023/05/22 12:46:39;;;;;;;7.22;6.53;;;22.00;73.20;;;;;;5094267;28;20040;-77
2023/05/22 12:49:05;;;;;;;8.93;6.60;;;22.10;73.40;;;;;;5096163;28;20395;-76
2023/05/22 12:51:32;;;;;;;8.70;6.30;;;22.10;73.20;;;;;;5094486;28;20486;-79
2023/05/22 12:53:58;;;;;;;9.82;6.15;;;22.20;73.10;;;;;;5095368;28;20035;-77
2023/05/22 12:56:25;;;;;;;9.63;6.30;;;22.20;73.10;;;;;;5101182;28;20038;-75
2023/05/22 12:58:51;;;;;;;6.35;5.72;;;22.20;73.10;;;;;;5089491;28;20028;-77